sensor_id;sensor_type;location;lat;lon;timestamp;P1;durP1;ratioP1;P2;durP2;ratioP2
73823;SDS011;62154;54.914;73.444;2023-05-01T00:00:18;18.13;;;6.07;;
73823;SDS011;62154;54.914;73.444;2023-05-01T00:02:49;11.85;;;6.05;;
73823;SDS011;62154;54.914;73.444;2023-05-01T00:05:17;12.20;;;5.65;;
73823;SDS011;62154;54.914;73.444;2023-05-01T00:07:46;12.85;;;5.60;;
73823;SDS011;62154;54.914;73.444;2023-05-01T00:10:22;8.98;;;5.38;;
73823;SDS011;62154;54.914;73.444;2023-05-01T00:12:49;12.40;;;6.10;;
73823;SDS011;62154;54.914;73.444;2023-05-01T00:15:21;14.90;;;7.10;;
73823;SDS011;62154;54.914;73.444;2023-05-01T00:17:48;16.27;;;7.25;;
73823;SDS011;62154;54.914;73.444;2023-05-01T00:20:15;22.73;;;8.88;;
73823;SDS011;62154;54.914;73.444;2023-05-01T00:22:54;113.63;;;35.28;;
73823;SDS011;62154;54.914;73.444;2023-05-01T00:25:23;25.65;;;13.05;;
73823;SDS011;62154;54.914;73.444;2023-05-01T00:27:50;24.42;;;10.75;;
73823;SDS011;62154;54.914;73.444;2023-05-01T00:30:17;22.00;;;10.80;;
73823;SDS011;62154;54.914;73.444;2023-05-01T00:32:54;22.30;;;10.67;;
73823;SDS011;62154;54.914;73.444;2023-05-01T00:35:22;18.83;;;9.73;;
73823;SDS011;62154;54.914;73.444;2023-05-01T00:37:49;18.50;;;8.23;;
73823;SDS011;62154;54.914;73.444;2023-05-01T00:40:27;15.65;;;7.82;;
73823;SDS011;62154;54.914;73.444;2023-05-01T00:42:55;12.52;;;7.38;;
73823;SDS011;62154;54.914;73.444;2023-05-01T00:45:22;20.95;;;9.52;;
73823;SDS011;62154;54.914;73.444;2023-05-01T00:47:49;21.65;;;9.70;;
73823;SDS011;62154;54.914;73.444;2023-05-01T00:50:16;22.35;;;10.15;;
73823;SDS011;62154;54.914;73.444;2023-05-01T00:52:44;25.40;;;12.90;;
73823;SDS011;62154;54.914;73.444;2023-05-01T00:55:11;26.05;;;12.23;;
73823;SDS011;62154;54.914;73.444;2023-05-01T00:57:38;29.58;;;11.65;;
73823;SDS011;62154;54.914;73.444;2023-05-01T01:00:06;27.58;;;13.48;;
73823;SDS011;62154;54.914;73.444;2023-05-01T01:02:34;25.83;;;12.93;;
73823;SDS011;62154;54.914;73.444;2023-05-01T01:05:01;31.00;;;15.13;;
73823;SDS011;62154;54.914;73.444;2023-05-01T01:08:14;37.38;;;13.38;;
73823;SDS011;62154;54.914;73.444;2023-05-01T01:10:26;28.52;;;12.15;;
73823;SDS011;62154;54.914;73.444;2023-05-01T01:15:54;28.23;;;14.68;;
73823;SDS011;62154;54.914;73.444;2023-05-01T01:18:46;28.08;;;11.75;;
73823;SDS011;62154;54.914;73.444;2023-05-01T01:21:31;38.84;;;20.54;;
73823;SDS011;62154;54.914;73.444;2023-05-01T01:29:11;41.60;;;22.15;;
73823;SDS011;62154;54.914;73.444;2023-05-01T01:34:18;25.50;;;13.00;;
73823;SDS011;62154;54.914;73.444;2023-05-01T01:39:40;28.35;;;13.50;;
73823;SDS011;62154;54.914;73.444;2023-05-01T01:42:12;28.10;;;12.80;;
73823;SDS011;62154;54.914;73.444;2023-05-01T01:44:51;20.55;;;9.45;;
73823;SDS011;62154;54.914;73.444;2023-05-01T01:47:24;29.13;;;12.35;;
73823;SDS011;62154;54.914;73.444;2023-05-01T01:49:58;22.55;;;11.52;;
73823;SDS011;62154;54.914;73.444;2023-05-01T01:52:28;33.58;;;9.77;;
73823;SDS011;62154;54.914;73.444;2023-05-01T01:55:08;21.10;;;10.23;;
73823;SDS011;62154;54.914;73.444;2023-05-01T01:57:40;19.98;;;10.57;;
73823;SDS011;62154;54.914;73.444;2023-05-01T02:00:11;21.77;;;7.30;;
73823;SDS011;62154;54.914;73.444;2023-05-01T02:02:47;20.90;;;8.73;;
73823;SDS011;62154;54.914;73.444;2023-05-01T02:05:15;15.27;;;7.18;;
73823;SDS011;62154;54.914;73.444;2023-05-01T02:07:43;15.77;;;7.35;;
73823;SDS011;62154;54.914;73.444;2023-05-01T02:10:12;17.00;;;6.93;;
73823;SDS011;62154;54.914;73.444;2023-05-01T02:12:40;16.52;;;7.38;;
73823;SDS011;62154;54.914;73.444;2023-05-01T02:15:08;15.02;;;8.40;;
73823;SDS011;62154;54.914;73.444;2023-05-01T02:17:37;18.98;;;7.18;;
73823;SDS011;62154;54.914;73.444;2023-05-01T02:20:07;18.65;;;8.95;;
73823;SDS011;62154;54.914;73.444;2023-05-01T02:22:35;16.13;;;7.85;;
73823;SDS011;62154;54.914;73.444;2023-05-01T02:25:04;16.17;;;8.30;;
73823;SDS011;62154;54.914;73.444;2023-05-01T02:27:35;13.15;;;6.78;;
73823;SDS011;62154;54.914;73.444;2023-05-01T02:30:15;15.82;;;6.65;;
73823;SDS011;62154;54.914;73.444;2023-05-01T02:32:50;16.02;;;6.72;;
73823;SDS011;62154;54.914;73.444;2023-05-01T02:35:17;11.77;;;6.10;;
73823;SDS011;62154;54.914;73.444;2023-05-01T02:37:44;16.88;;;6.32;;
73823;SDS011;62154;54.914;73.444;2023-05-01T02:40:12;11.93;;;5.53;;
73823;SDS011;62154;54.914;73.444;2023-05-01T02:42:42;16.63;;;5.43;;
73823;SDS011;62154;54.914;73.444;2023-05-01T02:45:16;15.02;;;6.80;;
73823;SDS011;62154;54.914;73.444;2023-05-01T02:47:46;14.27;;;6.28;;
73823;SDS011;62154;54.914;73.444;2023-05-01T02:50:19;13.27;;;6.18;;
73823;SDS011;62154;54.914;73.444;2023-05-01T02:52:47;12.57;;;6.95;;
73823;SDS011;62154;54.914;73.444;2023-05-01T02:55:38;14.77;;;6.28;;
73823;SDS011;62154;54.914;73.444;2023-05-01T02:58:06;16.27;;;6.13;;
73823;SDS011;62154;54.914;73.444;2023-05-01T03:00:44;14.68;;;5.30;;
73823;SDS011;62154;54.914;73.444;2023-05-01T03:03:11;15.70;;;6.00;;
73823;SDS011;62154;54.914;73.444;2023-05-01T03:05:43;14.55;;;6.45;;
73823;SDS011;62154;54.914;73.444;2023-05-01T03:08:10;35.83;;;7.60;;
73823;SDS011;62154;54.914;73.444;2023-05-01T03:10:41;10.20;;;5.68;;
73823;SDS011;62154;54.914;73.444;2023-05-01T03:13:09;14.35;;;6.78;;
73823;SDS011;62154;54.914;73.444;2023-05-01T03:15:37;13.93;;;6.63;;
73823;SDS011;62154;54.914;73.444;2023-05-01T03:18:04;13.30;;;7.00;;
73823;SDS011;62154;54.914;73.444;2023-05-01T03:20:31;10.02;;;5.40;;
73823;SDS011;62154;54.914;73.444;2023-05-01T03:23:05;11.27;;;5.65;;
73823;SDS011;62154;54.914;73.444;2023-05-01T03:25:33;24.40;;;5.95;;
73823;SDS011;62154;54.914;73.444;2023-05-01T03:28:01;12.52;;;4.88;;
73823;SDS011;62154;54.914;73.444;2023-05-01T03:30:28;15.55;;;5.28;;
73823;SDS011;62154;54.914;73.444;2023-05-01T03:32:55;12.70;;;4.73;;
73823;SDS011;62154;54.914;73.444;2023-05-01T03:35:29;13.55;;;4.32;;
73823;SDS011;62154;54.914;73.444;2023-05-01T03:37:59;14.43;;;4.32;;
73823;SDS011;62154;54.914;73.444;2023-05-01T03:40:49;16.67;;;5.07;;
73823;SDS011;62154;54.914;73.444;2023-05-01T03:43:22;12.25;;;5.18;;
73823;SDS011;62154;54.914;73.444;2023-05-01T03:45:51;8.32;;;4.00;;
73823;SDS011;62154;54.914;73.444;2023-05-01T03:48:19;10.73;;;3.40;;
73823;SDS011;62154;54.914;73.444;2023-05-01T03:50:51;12.88;;;4.45;;
73823;SDS011;62154;54.914;73.444;2023-05-01T03:53:19;11.60;;;4.88;;
73823;SDS011;62154;54.914;73.444;2023-05-01T03:55:51;10.38;;;3.25;;
73823;SDS011;62154;54.914;73.444;2023-05-01T03:58:19;15.13;;;3.10;;
73823;SDS011;62154;54.914;73.444;2023-05-01T04:00:47;21.17;;;8.23;;
73823;SDS011;62154;54.914;73.444;2023-05-01T04:03:15;13.73;;;3.47;;
73823;SDS011;62154;54.914;73.444;2023-05-01T04:05:43;11.25;;;3.20;;
73823;SDS011;62154;54.914;73.444;2023-05-01T04:08:10;15.70;;;4.95;;
73823;SDS011;62154;54.914;73.444;2023-05-01T04:10:37;11.68;;;4.68;;
73823;SDS011;62154;54.914;73.444;2023-05-01T04:13:09;6.61;;;3.06;;
73823;SDS011;62154;54.914;73.444;2023-05-01T04:15:38;12.18;;;2.97;;
73823;SDS011;62154;54.914;73.444;2023-05-01T04:18:05;7.60;;;2.70;;
73823;SDS011;62154;54.914;73.444;2023-05-01T04:20:32;10.20;;;3.20;;
73823;SDS011;62154;54.914;73.444;2023-05-01T04:23:00;9.50;;;2.65;;
73823;SDS011;62154;54.914;73.444;2023-05-01T04:25:27;8.20;;;2.97;;
73823;SDS011;62154;54.914;73.444;2023-05-01T04:28:00;9.77;;;2.80;;
73823;SDS011;62154;54.914;73.444;2023-05-01T04:30:28;5.07;;;2.70;;
73823;SDS011;62154;54.914;73.444;2023-05-01T04:32:55;12.02;;;3.10;;
73823;SDS011;62154;54.914;73.444;2023-05-01T04:35:24;10.30;;;2.70;;
73823;SDS011;62154;54.914;73.444;2023-05-01T04:37:51;7.13;;;2.42;;
73823;SDS011;62154;54.914;73.444;2023-05-01T04:40:18;10.85;;;3.10;;
73823;SDS011;62154;54.914;73.444;2023-05-01T04:42:46;7.15;;;2.92;;
73823;SDS011;62154;54.914;73.444;2023-05-01T04:45:20;8.50;;;3.03;;
73823;SDS011;62154;54.914;73.444;2023-05-01T04:47:52;7.88;;;4.03;;
73823;SDS011;62154;54.914;73.444;2023-05-01T04:50:19;10.75;;;2.58;;
73823;SDS011;62154;54.914;73.444;2023-05-01T04:52:46;3.60;;;2.03;;
73823;SDS011;62154;54.914;73.444;2023-05-01T04:55:14;4.78;;;2.88;;
73823;SDS011;62154;54.914;73.444;2023-05-01T04:57:58;4.55;;;3.05;;
73823;SDS011;62154;54.914;73.444;2023-05-01T05:00:35;5.35;;;2.83;;
73823;SDS011;62154;54.914;73.444;2023-05-01T05:03:04;8.07;;;2.40;;
73823;SDS011;62154;54.914;73.444;2023-05-01T05:05:32;5.30;;;2.10;;
73823;SDS011;62154;54.914;73.444;2023-05-01T05:08:00;8.30;;;2.30;;
73823;SDS011;62154;54.914;73.444;2023-05-01T05:10:44;5.53;;;2.30;;
73823;SDS011;62154;54.914;73.444;2023-05-01T05:13:45;6.06;;;2.17;;
73823;SDS011;62154;54.914;73.444;2023-05-01T05:16:13;7.78;;;2.42;;
73823;SDS011;62154;54.914;73.444;2023-05-01T05:18:41;3.90;;;2.08;;
73823;SDS011;62154;54.914;73.444;2023-05-01T05:21:08;12.52;;;4.55;;
73823;SDS011;62154;54.914;73.444;2023-05-01T05:23:36;16.67;;;3.20;;
73823;SDS011;62154;54.914;73.444;2023-05-01T05:26:09;8.40;;;2.42;;
73823;SDS011;62154;54.914;73.444;2023-05-01T05:28:36;9.93;;;2.92;;
73823;SDS011;62154;54.914;73.444;2023-05-01T05:31:09;6.35;;;2.72;;
73823;SDS011;62154;54.914;73.444;2023-05-01T05:33:37;8.32;;;3.00;;
73823;SDS011;62154;54.914;73.444;2023-05-01T05:36:05;18.33;;;2.88;;
73823;SDS011;62154;54.914;73.444;2023-05-01T05:38:49;12.68;;;3.72;;
73823;SDS011;62154;54.914;73.444;2023-05-01T05:41:18;12.80;;;2.90;;
73823;SDS011;62154;54.914;73.444;2023-05-01T05:44:00;7.05;;;3.02;;
73823;SDS011;62154;54.914;73.444;2023-05-01T05:46:27;6.35;;;2.22;;
73823;SDS011;62154;54.914;73.444;2023-05-01T05:48:55;15.65;;;2.58;;
73823;SDS011;62154;54.914;73.444;2023-05-01T05:51:22;4.85;;;2.53;;
73823;SDS011;62154;54.914;73.444;2023-05-01T05:53:49;9.30;;;3.08;;
73823;SDS011;62154;54.914;73.444;2023-05-01T05:56:17;20.35;;;4.07;;
73823;SDS011;62154;54.914;73.444;2023-05-01T05:58:45;10.68;;;2.50;;
73823;SDS011;62154;54.914;73.444;2023-05-01T06:01:12;25.45;;;2.97;;
73823;SDS011;62154;54.914;73.444;2023-05-01T06:03:40;13.85;;;2.95;;
73823;SDS011;62154;54.914;73.444;2023-05-01T06:06:08;5.72;;;1.80;;
73823;SDS011;62154;54.914;73.444;2023-05-01T06:08:35;4.75;;;2.08;;
73823;SDS011;62154;54.914;73.444;2023-05-01T06:11:05;9.65;;;2.70;;
73823;SDS011;62154;54.914;73.444;2023-05-01T06:13:32;7.65;;;2.83;;
73823;SDS011;62154;54.914;73.444;2023-05-01T06:16:00;12.63;;;3.22;;
73823;SDS011;62154;54.914;73.444;2023-05-01T06:18:37;6.88;;;2.55;;
73823;SDS011;62154;54.914;73.444;2023-05-01T06:21:16;13.73;;;3.58;;
73823;SDS011;62154;54.914;73.444;2023-05-01T06:23:43;12.65;;;2.50;;
73823;SDS011;62154;54.914;73.444;2023-05-01T06:26:33;6.53;;;1.80;;
73823;SDS011;62154;54.914;73.444;2023-05-01T06:29:01;9.43;;;3.10;;
73823;SDS011;62154;54.914;73.444;2023-05-01T06:31:28;8.13;;;3.92;;
73823;SDS011;62154;54.914;73.444;2023-05-01T06:33:57;7.35;;;3.22;;
73823;SDS011;62154;54.914;73.444;2023-05-01T06:36:56;6.47;;;3.20;;
73823;SDS011;62154;54.914;73.444;2023-05-01T06:39:23;9.65;;;3.80;;
73823;SDS011;62154;54.914;73.444;2023-05-01T06:41:50;5.95;;;2.55;;
73823;SDS011;62154;54.914;73.444;2023-05-01T06:44:30;15.32;;;3.60;;
73823;SDS011;62154;54.914;73.444;2023-05-01T06:46:57;9.75;;;3.70;;
73823;SDS011;62154;54.914;73.444;2023-05-01T06:49:34;9.82;;;2.92;;
73823;SDS011;62154;54.914;73.444;2023-05-01T06:52:01;12.05;;;2.75;;
73823;SDS011;62154;54.914;73.444;2023-05-01T06:54:28;41.35;;;6.30;;
73823;SDS011;62154;54.914;73.444;2023-05-01T06:56:55;14.35;;;3.08;;
73823;SDS011;62154;54.914;73.444;2023-05-01T06:59:22;7.88;;;3.40;;
73823;SDS011;62154;54.914;73.444;2023-05-01T07:01:53;19.33;;;4.78;;
73823;SDS011;62154;54.914;73.444;2023-05-01T07:04:20;14.45;;;4.38;;
73823;SDS011;62154;54.914;73.444;2023-05-01T07:06:47;14.10;;;3.50;;
73823;SDS011;62154;54.914;73.444;2023-05-01T07:09:14;8.13;;;2.55;;
73823;SDS011;62154;54.914;73.444;2023-05-01T07:11:41;11.98;;;4.00;;
73823;SDS011;62154;54.914;73.444;2023-05-01T07:14:08;6.70;;;2.70;;
73823;SDS011;62154;54.914;73.444;2023-05-01T07:16:35;13.30;;;2.85;;
73823;SDS011;62154;54.914;73.444;2023-05-01T07:19:02;8.85;;;3.50;;
73823;SDS011;62154;54.914;73.444;2023-05-01T07:21:34;13.57;;;3.08;;
73823;SDS011;62154;54.914;73.444;2023-05-01T07:24:01;15.02;;;4.25;;
73823;SDS011;62154;54.914;73.444;2023-05-01T07:26:28;13.50;;;4.10;;
73823;SDS011;62154;54.914;73.444;2023-05-01T07:28:55;8.63;;;3.42;;
73823;SDS011;62154;54.914;73.444;2023-05-01T07:31:22;16.10;;;3.63;;
73823;SDS011;62154;54.914;73.444;2023-05-01T07:33:49;9.93;;;4.35;;
73823;SDS011;62154;54.914;73.444;2023-05-01T07:36:21;8.48;;;5.07;;
73823;SDS011;62154;54.914;73.444;2023-05-01T07:38:49;10.93;;;4.32;;
73823;SDS011;62154;54.914;73.444;2023-05-01T07:41:21;29.77;;;6.45;;
73823;SDS011;62154;54.914;73.444;2023-05-01T07:43:53;11.45;;;4.95;;
73823;SDS011;62154;54.914;73.444;2023-05-01T07:46:33;25.90;;;5.97;;
73823;SDS011;62154;54.914;73.444;2023-05-01T07:49:09;10.02;;;4.60;;
73823;SDS011;62154;54.914;73.444;2023-05-01T07:51:36;7.50;;;4.03;;
73823;SDS011;62154;54.914;73.444;2023-05-01T07:54:02;15.05;;;5.03;;
73823;SDS011;62154;54.914;73.444;2023-05-01T07:56:30;15.25;;;4.35;;
73823;SDS011;62154;54.914;73.444;2023-05-01T07:58:57;11.30;;;4.38;;
73823;SDS011;62154;54.914;73.444;2023-05-01T08:01:25;9.60;;;4.80;;
73823;SDS011;62154;54.914;73.444;2023-05-01T08:03:51;21.42;;;7.78;;
73823;SDS011;62154;54.914;73.444;2023-05-01T08:06:19;14.57;;;8.13;;
73823;SDS011;62154;54.914;73.444;2023-05-01T08:08:46;13.13;;;6.28;;
73823;SDS011;62154;54.914;73.444;2023-05-01T08:11:24;12.57;;;5.95;;
73823;SDS011;62154;54.914;73.444;2023-05-01T08:13:56;18.92;;;7.18;;
73823;SDS011;62154;54.914;73.444;2023-05-01T08:16:23;16.85;;;7.63;;
73823;SDS011;62154;54.914;73.444;2023-05-01T08:18:50;14.50;;;5.93;;
73823;SDS011;62154;54.914;73.444;2023-05-01T08:21:17;19.63;;;8.05;;
73823;SDS011;62154;54.914;73.444;2023-05-01T08:23:47;16.10;;;7.70;;
73823;SDS011;62154;54.914;73.444;2023-05-01T08:26:16;17.80;;;9.30;;
73823;SDS011;62154;54.914;73.444;2023-05-01T08:28:44;19.77;;;11.30;;
73823;SDS011;62154;54.914;73.444;2023-05-01T08:31:12;41.53;;;15.98;;
73823;SDS011;62154;54.914;73.444;2023-05-01T08:33:39;29.98;;;14.63;;
73823;SDS011;62154;54.914;73.444;2023-05-01T08:36:09;41.33;;;16.63;;
73823;SDS011;62154;54.914;73.444;2023-05-01T08:38:37;32.00;;;16.98;;
73823;SDS011;62154;54.914;73.444;2023-05-01T08:41:04;30.40;;;17.65;;
73823;SDS011;62154;54.914;73.444;2023-05-01T08:43:41;26.67;;;16.55;;
73823;SDS011;62154;54.914;73.444;2023-05-01T08:46:09;24.40;;;15.85;;
73823;SDS011;62154;54.914;73.444;2023-05-01T08:48:38;26.90;;;17.95;;
73823;SDS011;62154;54.914;73.444;2023-05-01T08:51:07;26.17;;;16.92;;
73823;SDS011;62154;54.914;73.444;2023-05-01T08:53:36;28.48;;;15.35;;
73823;SDS011;62154;54.914;73.444;2023-05-01T08:56:05;34.40;;;15.93;;
73823;SDS011;62154;54.914;73.444;2023-05-01T08:58:33;37.78;;;15.52;;
73823;SDS011;62154;54.914;73.444;2023-05-01T09:01:01;34.88;;;17.50;;
73823;SDS011;62154;54.914;73.444;2023-05-01T09:03:34;38.85;;;21.48;;
73823;SDS011;62154;54.914;73.444;2023-05-01T09:06:02;37.47;;;21.01;;
73823;SDS011;62154;54.914;73.444;2023-05-01T09:08:30;33.65;;;21.20;;
73823;SDS011;62154;54.914;73.444;2023-05-01T09:11:03;42.92;;;23.17;;
73823;SDS011;62154;54.914;73.444;2023-05-01T09:13:34;41.33;;;23.17;;
73823;SDS011;62154;54.914;73.444;2023-05-01T09:16:03;45.13;;;23.90;;
73823;SDS011;62154;54.914;73.444;2023-05-01T09:18:32;41.53;;;25.15;;
73823;SDS011;62154;54.914;73.444;2023-05-01T09:20:59;39.13;;;20.65;;
73823;SDS011;62154;54.914;73.444;2023-05-01T09:23:27;31.20;;;17.48;;
73823;SDS011;62154;54.914;73.444;2023-05-01T09:26:08;40.24;;;17.25;;
73823;SDS011;62154;54.914;73.444;2023-05-01T09:28:42;36.85;;;19.05;;
73823;SDS011;62154;54.914;73.444;2023-05-01T09:31:19;33.03;;;14.50;;
73823;SDS011;62154;54.914;73.444;2023-05-01T09:33:58;29.10;;;14.82;;
73823;SDS011;62154;54.914;73.444;2023-05-01T09:36:31;35.37;;;14.47;;
73823;SDS011;62154;54.914;73.444;2023-05-01T09:39:01;29.65;;;13.43;;
73823;SDS011;62154;54.914;73.444;2023-05-01T09:41:29;26.05;;;14.88;;
73823;SDS011;62154;54.914;73.444;2023-05-01T09:43:59;30.35;;;16.60;;
73823;SDS011;62154;54.914;73.444;2023-05-01T09:46:27;39.13;;;19.93;;
73823;SDS011;62154;54.914;73.444;2023-05-01T09:48:55;36.80;;;19.10;;
73823;SDS011;62154;54.914;73.444;2023-05-01T09:51:26;36.17;;;18.63;;
73823;SDS011;62154;54.914;73.444;2023-05-01T09:53:57;28.02;;;15.07;;
73823;SDS011;62154;54.914;73.444;2023-05-01T09:56:25;23.77;;;12.23;;
73823;SDS011;62154;54.914;73.444;2023-05-01T09:58:53;39.30;;;9.40;;
73823;SDS011;62154;54.914;73.444;2023-05-01T10:01:37;24.67;;;8.02;;
73823;SDS011;62154;54.914;73.444;2023-05-01T10:04:12;17.20;;;7.75;;
73823;SDS011;62154;54.914;73.444;2023-05-01T10:06:40;26.33;;;8.55;;
73823;SDS011;62154;54.914;73.444;2023-05-01T10:09:25;16.63;;;9.02;;
73823;SDS011;62154;54.914;73.444;2023-05-01T10:11:53;31.15;;;10.77;;
73823;SDS011;62154;54.914;73.444;2023-05-01T10:14:34;20.38;;;7.65;;
73823;SDS011;62154;54.914;73.444;2023-05-01T10:17:18;30.55;;;11.75;;
73823;SDS011;62154;54.914;73.444;2023-05-01T10:19:50;19.98;;;9.45;;
73823;SDS011;62154;54.914;73.444;2023-05-01T10:22:18;18.35;;;9.25;;
73823;SDS011;62154;54.914;73.444;2023-05-01T10:24:55;21.83;;;8.48;;
73823;SDS011;62154;54.914;73.444;2023-05-01T10:27:26;27.45;;;9.52;;
73823;SDS011;62154;54.914;73.444;2023-05-01T10:29:55;26.15;;;8.85;;
73823;SDS011;62154;54.914;73.444;2023-05-01T10:32:23;20.25;;;8.27;;
73823;SDS011;62154;54.914;73.444;2023-05-01T10:34:51;27.15;;;8.70;;
73823;SDS011;62154;54.914;73.444;2023-05-01T10:37:23;20.83;;;8.38;;
73823;SDS011;62154;54.914;73.444;2023-05-01T10:39:50;20.65;;;9.13;;
73823;SDS011;62154;54.914;73.444;2023-05-01T10:42:17;22.20;;;8.77;;
73823;SDS011;62154;54.914;73.444;2023-05-01T10:44:44;19.73;;;8.52;;
73823;SDS011;62154;54.914;73.444;2023-05-01T10:50:06;24.75;;;9.20;;
73823;SDS011;62154;54.914;73.444;2023-05-01T10:55:31;14.48;;;7.22;;
73823;SDS011;62154;54.914;73.444;2023-05-01T10:58:04;17.95;;;10.15;;
73823;SDS011;62154;54.914;73.444;2023-05-01T11:00:40;28.30;;;8.02;;
73823;SDS011;62154;54.914;73.444;2023-05-01T11:08:40;21.37;;;10.53;;
73823;SDS011;62154;54.914;73.444;2023-05-01T11:13:58;24.20;;;11.20;;
73823;SDS011;62154;54.914;73.444;2023-05-01T11:19:00;23.20;;;10.30;;
73823;SDS011;62154;54.914;73.444;2023-05-01T11:21:31;21.50;;;10.18;;
73823;SDS011;62154;54.914;73.444;2023-05-01T11:24:01;17.17;;;8.45;;
73823;SDS011;62154;54.914;73.444;2023-05-01T11:26:29;18.33;;;9.25;;
73823;SDS011;62154;54.914;73.444;2023-05-01T11:28:57;43.92;;;14.55;;
73823;SDS011;62154;54.914;73.444;2023-05-01T11:31:29;34.65;;;11.98;;
73823;SDS011;62154;54.914;73.444;2023-05-01T11:36:53;35.75;;;13.85;;
73823;SDS011;62154;54.914;73.444;2023-05-01T11:39:24;19.70;;;10.63;;
73823;SDS011;62154;54.914;73.444;2023-05-01T11:42:04;23.10;;;12.75;;
73823;SDS011;62154;54.914;73.444;2023-05-01T11:44:31;32.67;;;16.98;;
73823;SDS011;62154;54.914;73.444;2023-05-01T11:46:58;31.63;;;14.02;;
73823;SDS011;62154;54.914;73.444;2023-05-01T11:49:27;27.98;;;13.23;;
73823;SDS011;62154;54.914;73.444;2023-05-01T11:51:55;35.95;;;16.02;;
73823;SDS011;62154;54.914;73.444;2023-05-01T11:54:23;26.48;;;10.65;;
73823;SDS011;62154;54.914;73.444;2023-05-01T11:56:57;25.20;;;11.02;;
73823;SDS011;62154;54.914;73.444;2023-05-01T11:59:25;29.00;;;11.50;;
73823;SDS011;62154;54.914;73.444;2023-05-01T12:01:52;27.45;;;11.82;;
73823;SDS011;62154;54.914;73.444;2023-05-01T12:04:23;37.78;;;11.73;;
73823;SDS011;62154;54.914;73.444;2023-05-01T12:06:51;22.38;;;11.82;;
73823;SDS011;62154;54.914;73.444;2023-05-01T12:09:22;23.40;;;12.05;;
73823;SDS011;62154;54.914;73.444;2023-05-01T12:11:50;34.22;;;15.70;;
73823;SDS011;62154;54.914;73.444;2023-05-01T12:14:18;25.02;;;13.55;;
73823;SDS011;62154;54.914;73.444;2023-05-01T12:16:45;25.38;;;12.85;;
73823;SDS011;62154;54.914;73.444;2023-05-01T12:19:13;28.58;;;12.90;;
73823;SDS011;62154;54.914;73.444;2023-05-01T12:21:40;32.05;;;16.17;;
73823;SDS011;62154;54.914;73.444;2023-05-01T12:26:37;30.27;;;14.82;;
73823;SDS011;62154;54.914;73.444;2023-05-01T12:29:15;27.70;;;16.10;;
73823;SDS011;62154;54.914;73.444;2023-05-01T12:31:46;32.05;;;16.55;;
73823;SDS011;62154;54.914;73.444;2023-05-01T12:34:13;33.63;;;17.30;;
73823;SDS011;62154;54.914;73.444;2023-05-01T12:36:41;28.67;;;16.10;;
73823;SDS011;62154;54.914;73.444;2023-05-01T12:39:10;32.88;;;18.45;;
73823;SDS011;62154;54.914;73.444;2023-05-01T12:41:40;35.22;;;18.40;;
73823;SDS011;62154;54.914;73.444;2023-05-01T12:44:23;38.60;;;19.20;;
73823;SDS011;62154;54.914;73.444;2023-05-01T12:47:06;38.42;;;22.42;;
73823;SDS011;62154;54.914;73.444;2023-05-01T12:49:34;46.80;;;25.25;;
73823;SDS011;62154;54.914;73.444;2023-05-01T12:52:05;38.83;;;21.92;;
73823;SDS011;62154;54.914;73.444;2023-05-01T12:54:34;41.67;;;21.48;;
73823;SDS011;62154;54.914;73.444;2023-05-01T12:57:06;34.53;;;20.70;;
73823;SDS011;62154;54.914;73.444;2023-05-01T12:59:34;39.17;;;21.17;;
73823;SDS011;62154;54.914;73.444;2023-05-01T13:02:02;39.03;;;22.95;;
73823;SDS011;62154;54.914;73.444;2023-05-01T13:04:34;42.17;;;26.70;;
73823;SDS011;62154;54.914;73.444;2023-05-01T13:07:13;37.92;;;20.10;;
73823;SDS011;62154;54.914;73.444;2023-05-01T13:09:50;42.58;;;23.00;;
73823;SDS011;62154;54.914;73.444;2023-05-01T13:12:28;39.25;;;20.70;;
73823;SDS011;62154;54.914;73.444;2023-05-01T13:14:55;39.05;;;21.05;;
73823;SDS011;62154;54.914;73.444;2023-05-01T13:17:23;49.65;;;26.45;;
73823;SDS011;62154;54.914;73.444;2023-05-01T13:19:57;44.08;;;22.55;;
73823;SDS011;62154;54.914;73.444;2023-05-01T13:22:28;39.28;;;22.38;;
73823;SDS011;62154;54.914;73.444;2023-05-01T13:24:55;49.30;;;28.25;;
73823;SDS011;62154;54.914;73.444;2023-05-01T13:27:32;71.65;;;33.17;;
73823;SDS011;62154;54.914;73.444;2023-05-01T13:30:00;70.07;;;34.05;;
73823;SDS011;62154;54.914;73.444;2023-05-01T13:32:30;49.33;;;27.42;;
73823;SDS011;62154;54.914;73.444;2023-05-01T13:34:59;54.08;;;28.52;;
73823;SDS011;62154;54.914;73.444;2023-05-01T13:37:37;61.42;;;29.45;;
73823;SDS011;62154;54.914;73.444;2023-05-01T13:40:05;65.68;;;28.30;;
73823;SDS011;62154;54.914;73.444;2023-05-01T13:42:32;46.47;;;23.88;;
73823;SDS011;62154;54.914;73.444;2023-05-01T13:45:05;57.60;;;27.80;;
73823;SDS011;62154;54.914;73.444;2023-05-01T13:47:32;61.80;;;27.48;;
73823;SDS011;62154;54.914;73.444;2023-05-01T13:49:59;69.13;;;27.40;;
73823;SDS011;62154;54.914;73.444;2023-05-01T13:52:26;39.33;;;23.88;;
73823;SDS011;62154;54.914;73.444;2023-05-01T13:54:54;56.25;;;26.35;;
73823;SDS011;62154;54.914;73.444;2023-05-01T13:57:35;64.40;;;27.20;;
73823;SDS011;62154;54.914;73.444;2023-05-01T14:00:05;72.05;;;27.65;;
73823;SDS011;62154;54.914;73.444;2023-05-01T14:02:46;62.40;;;25.75;;
73823;SDS011;62154;54.914;73.444;2023-05-01T14:05:14;49.67;;;23.70;;
73823;SDS011;62154;54.914;73.444;2023-05-01T14:07:52;41.50;;;18.13;;
73823;SDS011;62154;54.914;73.444;2023-05-01T14:10:19;37.78;;;18.08;;
73823;SDS011;62154;54.914;73.444;2023-05-01T14:12:47;44.67;;;18.98;;
73823;SDS011;62154;54.914;73.444;2023-05-01T14:15:14;44.90;;;18.50;;
73823;SDS011;62154;54.914;73.444;2023-05-01T14:17:42;39.28;;;19.80;;
73823;SDS011;62154;54.914;73.444;2023-05-01T14:20:11;33.90;;;18.27;;
73823;SDS011;62154;54.914;73.444;2023-05-01T14:27:59;26.10;;;11.77;;
73823;SDS011;62154;54.914;73.444;2023-05-01T14:30:27;28.60;;;14.43;;
73823;SDS011;62154;54.914;73.444;2023-05-01T14:32:55;28.10;;;16.15;;
73823;SDS011;62154;54.914;73.444;2023-05-01T14:35:23;22.42;;;11.50;;
73823;SDS011;62154;54.914;73.444;2023-05-01T14:37:56;17.45;;;10.75;;
73823;SDS011;62154;54.914;73.444;2023-05-01T14:40:26;39.50;;;18.67;;
73823;SDS011;62154;54.914;73.444;2023-05-01T14:42:59;62.60;;;31.23;;
73823;SDS011;62154;54.914;73.444;2023-05-01T14:45:41;39.22;;;21.27;;
73823;SDS011;62154;54.914;73.444;2023-05-01T14:48:19;48.40;;;22.05;;
73823;SDS011;62154;54.914;73.444;2023-05-01T14:50:47;23.23;;;13.27;;
73823;SDS011;62154;54.914;73.444;2023-05-01T14:53:15;46.85;;;27.77;;
73823;SDS011;62154;54.914;73.444;2023-05-01T14:55:42;57.25;;;35.75;;
73823;SDS011;62154;54.914;73.444;2023-05-01T14:58:09;58.75;;;36.05;;
73823;SDS011;62154;54.914;73.444;2023-05-01T15:00:36;57.42;;;37.20;;
73823;SDS011;62154;54.914;73.444;2023-05-01T15:03:04;62.35;;;37.70;;
73823;SDS011;62154;54.914;73.444;2023-05-01T15:05:31;64.30;;;37.20;;
73823;SDS011;62154;54.914;73.444;2023-05-01T15:08:05;59.28;;;37.05;;
73823;SDS011;62154;54.914;73.444;2023-05-01T15:10:34;67.43;;;38.58;;
73823;SDS011;62154;54.914;73.444;2023-05-01T15:13:01;62.20;;;38.28;;
73823;SDS011;62154;54.914;73.444;2023-05-01T15:15:29;62.58;;;37.35;;
73823;SDS011;62154;54.914;73.444;2023-05-01T15:17:56;60.20;;;37.03;;